createdAt,value
2022-10-16T00:02:33.230Z,12.77
2022-10-16T00:05:42.093Z,12.80
2022-10-16T00:08:44.210Z,12.80
2022-10-16T00:11:46.255Z,12.75
2022-10-16T00:14:48.176Z,12.78
2022-10-16T00:17:50.401Z,12.60
2022-10-16T00:20:53.796Z,12.69
2022-10-16T00:23:58.849Z,12.74
2022-10-16T00:27:00.809Z,12.74
2022-10-16T00:30:03.918Z,12.73
2022-10-16T00:33:05.837Z,12.68
2022-10-16T00:36:12.825Z,12.71
2022-10-16T00:39:14.935Z,12.81
2022-10-16T00:42:17.876Z,12.82
2022-10-16T00:45:19.890Z,12.83
2022-10-16T00:48:22.271Z,12.78
2022-10-16T00:51:29.575Z,12.84
2022-10-16T00:54:33.136Z,12.85
2022-10-16T00:57:35.081Z,12.87
2022-10-16T01:00:36.999Z,12.82
2022-10-16T01:03:39.337Z,12.59
2022-10-16T01:06:53.004Z,12.30
2022-10-16T01:10:08.469Z,12.14
2022-10-16T01:13:13.639Z,12.19
2022-10-16T01:16:23.699Z,12.24
2022-10-16T01:19:42.197Z,12.38
2022-10-16T01:23:00.064Z,12.37
2022-10-16T01:26:18.686Z,12.28
2022-10-16T01:29:27.158Z,12.41
2022-10-16T01:32:34.717Z,12.42
2022-10-16T01:35:40.177Z,12.43
2022-10-16T01:38:45.653Z,12.14
2022-10-16T01:41:52.921Z,11.83
2022-10-16T01:44:58.595Z,11.68
2022-10-16T01:48:03.315Z,11.59
2022-10-16T01:51:09.650Z,11.79
2022-10-16T01:54:14.794Z,11.94
2022-10-16T01:57:19.115Z,12.00
2022-10-16T02:00:23.673Z,12.07
2022-10-16T02:03:25.635Z,11.91
2022-10-16T02:06:27.601Z,11.79
2022-10-16T02:09:31.338Z,11.64
2022-10-16T02:12:37.342Z,11.56
2022-10-16T02:15:41.069Z,11.65
2022-10-16T02:18:44.546Z,11.65
2022-10-16T02:21:52.564Z,11.73
2022-10-16T02:24:59.033Z,11.83
2022-10-16T02:28:07.398Z,11.84
2022-10-16T02:31:14.091Z,11.48
2022-10-16T02:34:17.778Z,11.22
2022-10-16T02:37:20.277Z,11.15
2022-10-16T02:40:25.189Z,11.38
2022-10-16T02:43:27.516Z,11.54
2022-10-16T02:46:31.028Z,11.65
2022-10-16T02:49:33.000Z,11.69
2022-10-16T02:52:34.935Z,11.76
2022-10-16T02:55:36.932Z,11.64
2022-10-16T02:58:38.843Z,11.59
2022-10-16T03:01:42.207Z,11.69
2022-10-16T03:04:44.097Z,11.51
2022-10-16T03:07:46.178Z,11.26
2022-10-16T03:10:48.164Z,11.13
2022-10-16T03:13:50.135Z,10.82
2022-10-16T03:16:53.950Z,10.85
2022-10-16T03:19:56.053Z,10.96
2022-10-16T03:22:58.080Z,11.19
2022-10-16T03:26:00.433Z,11.36
2022-10-16T03:29:02.912Z,11.48
2022-10-16T03:32:06.545Z,11.49
2022-10-16T03:35:09.023Z,11.57
2022-10-16T03:38:11.153Z,11.65
2022-10-16T03:41:13.584Z,11.54
2022-10-16T03:44:15.546Z,11.62
2022-10-16T03:47:19.001Z,11.69
2022-10-16T03:50:21.027Z,11.75
2022-10-16T03:53:23.023Z,11.78
2022-10-16T03:56:25.006Z,11.76
2022-10-16T03:59:26.940Z,11.57
2022-10-16T04:02:30.260Z,11.34
2022-10-16T04:05:32.177Z,11.43
2022-10-16T04:08:34.342Z,11.50
2022-10-16T04:11:36.227Z,11.59
2022-10-16T04:14:38.203Z,11.54
2022-10-16T04:17:41.567Z,11.55
2022-10-16T04:20:43.490Z,11.53
2022-10-16T04:23:45.458Z,11.60
2022-10-16T04:26:47.361Z,11.49
2022-10-16T04:29:49.281Z,11.58
2022-10-16T04:32:52.986Z,11.57
2022-10-16T04:35:58.294Z,11.59
2022-10-16T04:39:00.450Z,11.65
2022-10-16T04:42:02.378Z,11.71
2022-10-16T04:45:05.276Z,11.72
2022-10-16T04:48:08.767Z,11.68
2022-10-16T04:51:10.697Z,11.67
2022-10-16T04:54:12.733Z,11.51
2022-10-16T04:57:14.643Z,11.16
2022-10-16T05:00:16.865Z,10.74
2022-10-16T05:03:20.373Z,10.66
2022-10-16T05:06:22.440Z,10.47
2022-10-16T05:09:24.527Z,10.31
2022-10-16T05:12:26.572Z,10.23
2022-10-16T05:15:28.486Z,10.34
2022-10-16T05:18:31.847Z,10.55
2022-10-16T05:21:33.754Z,10.65
2022-10-16T05:24:35.653Z,10.78
2022-10-16T05:27:37.695Z,10.85
2022-10-16T05:30:39.997Z,10.41
2022-10-16T05:33:43.345Z,10.36
2022-10-16T05:36:45.361Z,10.48
2022-10-16T05:39:47.288Z,10.62
2022-10-16T05:42:49.190Z,10.66
2022-10-16T05:45:57.663Z,10.77
2022-10-16T05:49:00.993Z,10.92
2022-10-16T05:52:03.090Z,11.00
2022-10-16T05:55:06.040Z,10.55
2022-10-16T05:58:07.895Z,10.40
2022-10-16T06:01:12.291Z,10.66
2022-10-16T06:04:15.766Z,10.76
2022-10-16T06:07:18.069Z,10.88
2022-10-16T06:10:20.347Z,10.87
2022-10-16T06:13:22.313Z,10.71
2022-10-16T06:16:24.739Z,10.60
2022-10-16T06:19:28.070Z,10.67
2022-10-16T06:22:30.360Z,10.56
2022-10-16T06:25:32.470Z,10.44
2022-10-16T06:28:34.354Z,10.52
2022-10-16T06:31:36.271Z,10.70
2022-10-16T06:34:41.883Z,10.85
2022-10-16T06:37:45.985Z,10.99
2022-10-16T06:40:47.919Z,11.14
2022-10-16T06:43:49.995Z,11.25
2022-10-16T06:46:51.992Z,11.37
2022-10-16T06:49:55.305Z,11.45
2022-10-16T06:52:57.282Z,11.53
2022-10-16T06:56:07.073Z,11.61
2022-10-16T06:59:09.148Z,11.71
2022-10-16T07:02:11.078Z,11.79
2022-10-16T07:05:14.539Z,11.86
2022-10-16T07:08:16.482Z,11.94
2022-10-16T07:11:20.570Z,12.02
2022-10-16T07:14:22.988Z,12.11
2022-10-16T07:17:24.944Z,12.20
2022-10-16T07:20:28.476Z,12.28
2022-10-16T07:23:30.362Z,12.40
2022-10-16T07:26:34.473Z,12.44
2022-10-16T07:29:36.397Z,12.52
2022-10-16T07:32:38.449Z,12.59
2022-10-16T07:35:50.577Z,12.67
2022-10-16T07:38:54.232Z,12.86
2022-10-16T07:41:59.264Z,12.93
2022-10-16T07:45:01.193Z,13.02
2022-10-16T07:48:03.478Z,13.03
2022-10-16T07:51:08.382Z,13.08
2022-10-16T07:54:10.907Z,13.10
2022-10-16T07:57:12.826Z,13.25
2022-10-16T08:00:14.975Z,13.32
2022-10-16T08:03:16.954Z,13.37
2022-10-16T08:06:25.273Z,13.46
2022-10-16T08:09:29.853Z,13.52
2022-10-16T08:12:31.833Z,13.59
2022-10-16T08:15:34.303Z,13.70
2022-10-16T08:18:36.689Z,13.84
2022-10-16T08:21:40.015Z,13.87
2022-10-16T08:24:42.286Z,14.16
2022-10-16T08:27:44.245Z,14.25
2022-10-16T08:30:46.509Z,14.23
2022-10-16T08:33:48.739Z,14.38
2022-10-16T08:36:54.178Z,14.44
2022-10-16T08:39:56.109Z,14.52
2022-10-16T08:43:30.599Z,14.64
2022-10-16T08:46:50.424Z,14.64
2022-10-16T08:49:57.950Z,14.67
2022-10-16T08:53:01.439Z,14.71
2022-10-16T08:56:03.484Z,14.80
2022-10-16T08:59:11.325Z,14.88
2022-10-16T09:02:28.303Z,14.94
2022-10-16T09:05:51.422Z,15.00
2022-10-16T09:09:06.100Z,15.21
2022-10-16T09:12:17.747Z,15.22
2022-10-16T09:15:29.984Z,15.23
2022-10-16T09:18:38.484Z,15.24
2022-10-16T09:21:43.277Z,15.43
2022-10-16T09:24:46.709Z,15.41
2022-10-16T09:27:53.301Z,15.37
2022-10-16T09:30:55.294Z,15.49
2022-10-16T09:34:00.664Z,15.71
2022-10-16T09:37:07.199Z,15.65
2022-10-16T09:40:24.796Z,15.79
2022-10-16T09:43:29.615Z,15.87
2022-10-16T09:46:33.300Z,15.96
2022-10-16T09:49:35.155Z,16.07
2022-10-16T09:52:37.127Z,16.10
2022-10-16T09:55:50.582Z,16.18
2022-10-16T09:58:53.236Z,16.27
2022-10-16T10:01:56.064Z,16.38
2022-10-16T10:04:58.411Z,16.45
2022-10-16T10:08:02.803Z,16.42
2022-10-16T10:11:06.146Z,16.47
2022-10-16T10:14:18.308Z,16.60
2022-10-16T10:17:22.171Z,16.63
2022-10-16T10:20:27.346Z,16.96
2022-10-16T10:23:30.723Z,16.97
2022-10-16T10:26:37.780Z,17.01
2022-10-16T10:29:54.889Z,17.13
2022-10-16T10:33:12.432Z,17.25
2022-10-16T10:36:26.893Z,17.41
2022-10-16T10:39:36.642Z,17.60
2022-10-16T10:42:49.862Z,17.59
2022-10-16T10:45:55.946Z,17.82
2022-10-16T10:49:24.803Z,17.82
2022-10-16T10:52:49.586Z,17.69
2022-10-16T10:56:00.114Z,17.62
2022-10-16T10:59:19.047Z,17.56
2022-10-16T11:02:27.796Z,17.70
2022-10-16T11:05:41.220Z,17.98
2022-10-16T11:08:49.448Z,18.13
2022-10-16T11:11:56.559Z,18.35
2022-10-16T11:15:05.673Z,18.32
2022-10-16T11:18:14.468Z,18.28
2022-10-16T11:21:20.610Z,18.24
2022-10-16T11:24:31.269Z,18.12
2022-10-16T11:27:38.972Z,18.10
2022-10-16T11:30:47.434Z,18.17
2022-10-16T11:33:55.932Z,18.22
2022-10-16T11:37:02.669Z,18.24
2022-10-16T11:40:20.193Z,18.41
2022-10-16T11:43:28.161Z,18.42
2022-10-16T11:46:33.654Z,18.51
2022-10-16T11:49:38.468Z,18.62
2022-10-16T11:52:45.617Z,18.95
2022-10-16T11:55:47.606Z,18.86
2022-10-16T11:58:57.291Z,18.86
2022-10-16T12:02:21.822Z,18.90
2022-10-16T12:05:31.599Z,18.89
2022-10-16T12:08:35.293Z,18.88
2022-10-16T12:11:39.724Z,18.98
2022-10-16T12:15:04.006Z,18.96
2022-10-16T12:18:21.357Z,19.11
2022-10-16T12:21:31.885Z,19.24
2022-10-16T12:24:37.500Z,19.26
2022-10-16T12:27:39.526Z,19.19
2022-10-16T12:30:42.789Z,19.36
2022-10-16T12:33:58.679Z,19.46
2022-10-16T12:37:12.468Z,19.46
2022-10-16T12:40:17.464Z,19.49
2022-10-16T12:43:38.116Z,19.54
2022-10-16T12:46:41.012Z,19.44
2022-10-16T12:49:50.520Z,19.40
2022-10-16T12:52:52.476Z,19.46
2022-10-16T12:56:04.460Z,19.49
2022-10-16T12:59:17.674Z,19.68
2022-10-16T13:02:50.041Z,19.78
2022-10-16T13:06:07.735Z,19.78
2022-10-16T13:09:28.623Z,19.95
2022-10-16T13:12:55.665Z,19.91
2022-10-16T13:16:10.908Z,19.99
2022-10-16T13:19:28.683Z,19.90
2022-10-16T13:22:39.586Z,19.83
2022-10-16T13:26:05.822Z,19.82
2022-10-16T13:29:07.923Z,19.82
2022-10-16T13:32:12.288Z,19.78
2022-10-16T13:35:22.738Z,19.82
2022-10-16T13:38:27.348Z,20.00
2022-10-16T13:41:29.276Z,20.20
2022-10-16T13:44:38.231Z,20.17
2022-10-16T13:47:40.165Z,20.24
2022-10-16T13:50:42.096Z,20.28
2022-10-16T13:53:46.973Z,20.26
2022-10-16T13:56:57.779Z,20.23
2022-10-16T14:00:18.969Z,20.26
2022-10-16T14:03:21.507Z,20.32
2022-10-16T14:06:23.623Z,20.35
2022-10-16T14:09:29.177Z,20.47
2022-10-16T14:12:31.485Z,20.35
2022-10-16T14:15:36.209Z,20.23
2022-10-16T14:18:40.887Z,20.28
2022-10-16T14:21:43.198Z,20.30
2022-10-16T14:24:47.338Z,20.36
2022-10-16T14:27:59.819Z,20.73
2022-10-16T14:31:03.620Z,20.64
2022-10-16T14:34:05.715Z,20.52
2022-10-16T14:37:27.531Z,20.54
2022-10-16T14:40:33.541Z,20.46
2022-10-16T14:43:37.731Z,20.47
2022-10-16T14:46:42.239Z,20.52
2022-10-16T14:49:44.442Z,20.50
2022-10-16T14:52:46.444Z,20.57
2022-10-16T14:55:50.201Z,20.61
2022-10-16T14:58:53.316Z,20.59
2022-10-16T15:01:55.458Z,20.65
2022-10-16T15:04:58.009Z,20.55
2022-10-16T15:08:00.272Z,20.60
2022-10-16T15:11:03.760Z,20.70
2022-10-16T15:14:06.328Z,21.10
2022-10-16T15:17:10.084Z,21.10
2022-10-16T15:20:12.023Z,20.84
2022-10-16T15:23:16.515Z,20.88
2022-10-16T15:26:19.999Z,20.96
2022-10-16T15:29:21.928Z,21.04
2022-10-16T15:32:23.860Z,21.16
2022-10-16T15:35:26.098Z,21.23
2022-10-16T15:38:32.103Z,21.30
2022-10-16T15:41:35.653Z,21.43
2022-10-16T15:44:37.980Z,21.44
2022-10-16T15:47:43.558Z,21.43
2022-10-16T15:50:47.832Z,20.73
2022-10-16T15:53:49.865Z,20.27
2022-10-16T15:56:53.335Z,20.02
2022-10-16T16:03:02.643Z,19.88
2022-10-16T16:06:05.903Z,19.80
2022-10-16T16:09:07.863Z,19.71
2022-10-16T16:12:11.670Z,19.65
2022-10-16T16:15:13.661Z,19.38
2022-10-16T16:18:15.569Z,19.36
2022-10-16T16:21:17.778Z,19.28
2022-10-16T16:24:19.959Z,19.07
2022-10-16T16:27:24.215Z,19.05
2022-10-16T16:30:28.291Z,18.67
2022-10-16T16:33:31.090Z,18.15
2022-10-16T16:36:33.949Z,18.23
2022-10-16T16:39:36.062Z,17.66
2022-10-16T16:42:39.485Z,17.55
2022-10-16T16:45:41.938Z,17.15
2022-10-16T16:48:44.116Z,17.12
2022-10-16T16:51:46.239Z,16.81
2022-10-16T16:54:49.540Z,16.65
2022-10-16T16:57:54.478Z,16.47
2022-10-16T17:01:08.732Z,16.31
2022-10-16T17:04:21.004Z,16.25
2022-10-16T17:07:24.412Z,16.00
2022-10-16T17:10:27.415Z,16.11
2022-10-16T17:13:33.429Z,15.94
2022-10-16T17:16:40.550Z,15.78
2022-10-16T17:19:44.397Z,15.60
2022-10-16T17:22:47.604Z,15.46
2022-10-16T17:25:53.222Z,15.45
2022-10-16T17:28:59.400Z,15.47
2022-10-16T17:32:02.613Z,15.54
2022-10-16T17:35:07.167Z,15.69
2022-10-16T17:38:10.523Z,15.68
2022-10-16T17:41:15.783Z,15.64
2022-10-16T17:44:21.086Z,15.71
2022-10-16T17:47:23.879Z,15.70
2022-10-16T17:50:27.354Z,15.54
2022-10-16T17:53:31.162Z,15.46
2022-10-16T17:56:34.915Z,15.31
2022-10-16T17:59:39.687Z,15.29
2022-10-16T18:02:43.142Z,15.36
2022-10-16T18:05:45.448Z,15.21
2022-10-16T18:08:48.273Z,15.29
2022-10-16T18:11:51.364Z,15.34
2022-10-16T18:14:57.116Z,15.47
2022-10-16T18:17:59.989Z,15.42
2022-10-16T18:21:04.763Z,15.29
2022-10-16T18:24:07.562Z,15.54
2022-10-16T18:27:10.480Z,15.74
2022-10-16T18:30:18.170Z,15.86
2022-10-16T18:33:21.261Z,15.88
2022-10-16T18:36:26.444Z,15.98
2022-10-16T18:39:30.864Z,15.93
2022-10-16T18:42:33.612Z,15.65
2022-10-16T18:45:37.692Z,15.48
2022-10-16T18:48:43.937Z,15.37
2022-10-16T18:51:47.243Z,15.37
2022-10-16T18:54:51.252Z,15.40
2022-10-16T18:57:57.672Z,15.47
2022-10-16T19:01:06.884Z,15.64
2022-10-16T19:04:13.280Z,15.68
2022-10-16T19:07:16.293Z,15.73
2022-10-16T19:10:20.776Z,15.79
2022-10-16T19:13:27.248Z,15.82
2022-10-16T19:16:34.405Z,15.75
2022-10-16T19:19:37.682Z,15.76
2022-10-16T19:22:40.442Z,15.52
2022-10-16T19:25:43.302Z,15.36
2022-10-16T19:28:46.244Z,15.39
2022-10-16T19:31:51.003Z,15.51
2022-10-16T19:34:53.950Z,15.58
2022-10-16T19:37:56.368Z,15.61
2022-10-16T19:41:05.319Z,15.51
2022-10-16T19:44:10.051Z,15.39
2022-10-16T19:47:14.627Z,15.42
2022-10-16T19:50:16.650Z,15.47
2022-10-16T19:53:18.666Z,15.42
2022-10-16T19:56:23.224Z,15.45
2022-10-16T19:59:25.382Z,15.34
2022-10-16T20:02:29.276Z,15.31
2022-10-16T20:05:31.710Z,15.39
2022-10-16T20:08:35.082Z,15.48
2022-10-16T20:11:37.612Z,15.38
2022-10-16T20:14:39.765Z,15.39
2022-10-16T20:17:43.541Z,15.39
2022-10-16T20:20:48.531Z,15.39
2022-10-16T20:23:50.791Z,15.37
2022-10-16T20:26:53.110Z,15.40
2022-10-16T20:29:55.401Z,15.41
2022-10-16T20:32:58.743Z,15.39
2022-10-16T20:36:00.776Z,15.41
2022-10-16T20:39:03.613Z,15.41
2022-10-16T20:42:06.014Z,15.38
2022-10-16T20:45:09.271Z,15.41
2022-10-16T20:48:14.199Z,15.40
2022-10-16T20:51:18.344Z,15.30
2022-10-16T20:54:21.165Z,15.24
2022-10-16T20:57:23.113Z,15.23
2022-10-16T21:00:24.989Z,15.17
2022-10-16T21:03:28.295Z,15.19
2022-10-16T21:06:32.512Z,15.13
2022-10-16T21:09:34.449Z,15.09
2022-10-16T21:12:36.404Z,15.05
2022-10-16T21:15:38.310Z,15.03
2022-10-16T21:18:44.603Z,15.03
2022-10-16T21:21:46.890Z,14.96
2022-10-16T21:24:48.835Z,14.89
2022-10-16T21:27:50.785Z,14.82
2022-10-16T21:30:52.788Z,14.83
2022-10-16T21:33:56.443Z,14.76
2022-10-16T21:36:58.316Z,14.80
2022-10-16T21:40:00.461Z,14.71
2022-10-16T21:43:02.376Z,14.65
2022-10-16T21:46:04.315Z,14.62
2022-10-16T21:49:12.418Z,14.61
2022-10-16T21:52:14.931Z,14.66
2022-10-16T21:55:17.309Z,14.60
2022-10-16T21:58:19.546Z,14.63
2022-10-16T22:01:23.987Z,14.65
2022-10-16T22:04:27.388Z,14.63
2022-10-16T22:07:30.001Z,14.57
2022-10-16T22:10:32.433Z,14.54
2022-10-16T22:13:35.034Z,14.51
2022-10-16T22:16:37.476Z,14.55
2022-10-16T22:19:41.060Z,14.55
2022-10-16T22:22:43.005Z,14.41
2022-10-16T22:25:44.929Z,14.43
2022-10-16T22:28:47.360Z,14.38
2022-10-16T22:31:51.809Z,14.37
2022-10-16T22:34:55.064Z,14.28
2022-10-16T22:37:57.344Z,14.31
2022-10-16T22:41:01.583Z,14.25
2022-10-16T22:44:03.767Z,14.21
2022-10-16T22:47:05.714Z,14.20
2022-10-16T22:50:09.446Z,14.20
2022-10-16T22:53:11.338Z,14.17
2022-10-16T22:56:14.844Z,14.13
2022-10-16T22:59:17.279Z,14.17
2022-10-16T23:02:19.274Z,14.10
2022-10-16T23:05:22.558Z,14.12
2022-10-16T23:08:24.482Z,14.08
2022-10-16T23:11:27.242Z,14.01
2022-10-16T23:14:29.224Z,14.05
2022-10-16T23:17:31.919Z,14.02
2022-10-16T23:20:35.517Z,14.03
2022-10-16T23:23:38.677Z,14.03
2022-10-16T23:26:40.709Z,14.00
2022-10-16T23:29:42.665Z,14.00
2022-10-16T23:32:44.617Z,13.98
2022-10-16T23:35:47.923Z,13.98
2022-10-16T23:38:51.061Z,13.87
2022-10-16T23:41:53.019Z,13.83
2022-10-16T23:44:54.899Z,13.86
2022-10-16T23:47:56.886Z,13.94
2022-10-16T23:51:00.648Z,13.89
2022-10-16T23:54:02.631Z,13.88
2022-10-16T23:57:04.570Z,13.91
